Petros Tzolis

Olheiro-Chefe - Atromitos
28 Nov 2027
Domingo
Processo

Personalidade

Adaptabilidade (11) Ambição (12) Controvérsia (12) Lealdade (10) Pressão (1) Profissionalismo (15) Espírito Esportivo (13) Temperamento (18)

Perfil

Estilo de Treinamento Democrático
Licença Continental C
Determinação 7
Gestão de Pessoas 6
Motivação 9
Disciplina 7
Satisfação no Trabalho
95%
Fadiga
0%
Função Olheiro-Chefe
Salário 59.8K p/s
Contrato 14.03.2028

Desempenho

Comportamento Bom
Eficácia do Treinamento
39%
Desenvolvimento do Jogador
45%
Prevenção de Lesões
40%
Implementação Tática
35%

Eventos Recentes

Recomendou um alvo de transferência agora
Recomendou um alvo de transferência agora
Recomendou um alvo de transferência agora
Recomendou um alvo de transferência agora
Recomendou um alvo de transferência agora
Participou de uma reunião de recrutamento agora
Participou de uma reunião de recrutamento agora
Avaliou um jogador agora

Monitorando agora

272
Jogador Clube Status Habilidade Confiança Observado Última observação Último voto
Azizbek To'lqinbekov Bunyodkor Ativo 109 / 121 40% 5 26.11.2027 -
Olaniyi Saheed Kwara United Ativo 87 / 104 40% 6 26.11.2027 -
Izan Merino Málaga Ativo 123 / 139 40% 3 26.11.2027 -
Valentín Weinzettel Patronato Ativo 83 / 109 40% 5 24.11.2027 -
Ronan Kpakio Grimsby Town Ativo 129 / 124 40% 2 24.11.2027 -
Dimos Papakonstantinou Bromley Ativo 78 / 83 40% 1 24.11.2027 -
Edmilson Herazo Cortulua Ativo 93 / 94 40% 3 23.11.2027 -
Juan Manuel Villalba Tigre Ativo 130 / 117 40% 5 21.11.2027 -
David Chinagorom Abia Warriors Ativo 78 / 89 40% 4 21.11.2027 -
Josh Nichols Oldham Athletic Ativo 121 / 119 40% 1 21.11.2027 -
Joel Ezra Enyimba Ativo 88 / 108 40% 10 19.11.2027 -
Esquerdinha Shrewsbury Town Ativo 114 / 123 40% 1 19.11.2027 -
Oscar Steinke Brånby Hammarby Ativo 116 / 113 40% 4 18.11.2027 -
Dmitry Pestryakov Spartak Moscow Ativo 116 / 135 40% 2 18.11.2027 -
Tom Atcheson Crewe Alexandra Ativo 123 / 118 40% 4 17.11.2027 -
Sebastián Ramírez America de Cali Ativo 111 / 104 40% 4 16.11.2027 -
David Damboama El-Kanemi Warriors Ativo 73 / 87 40% 5 16.11.2027 -
Callum Olusesi Crawley Town Ativo 114 / 117 40% 1 16.11.2027 -
Hosea Michael Remo Stars Ativo 94 / 98 40% 5 14.11.2027 -
Mateo Ferrari Atlanta Ativo 85 / 95 40% 3 14.11.2027 -
Samuel Molano Patriotas Ativo 94 / 96 40% 1 14.11.2027 -
Uche Jaguar Kwara United Ativo 104 / 110 40% 3 12.11.2027 -
Mauro Carrizo Atlético Tucumán Ativo 110 / 104 40% 2 07.11.2027 -
Mikkel Hope Haugesund Ativo 94 / 94 40% 1 05.11.2027 -
Adrian Skogmar Malmo FF Ativo 123 / 107 40% 2 02.11.2027 -
Braian Cabral Madryn Ativo 103 / 82 40% 2 31.10.2027 -
Kenan Busuladžić AIK Ativo 112 / 132 40% 4 29.10.2027 -
Sebastián Arancibia O'Higgins Ativo 102 / 104 40% 3 27.10.2027 -
Alexis Ríos Leones Ativo 72 / 75 40% 3 26.10.2027 -
Godwin Oham Warri Wolves Ativo 88 / 84 40% 5 26.10.2027 -
Jackson Imbiakha Muranga Seal Ativo 83 / 79 40% 3 26.10.2027 -
Andres Sinisterra Cortulua Ativo 87 / 83 40% 2 23.10.2027 -
Felipe Obradovich Lanús Ativo 106 / 120 40% 3 23.10.2027 -
David Asayure Lokomotivi Ativo 69 / 97 40% 2 23.10.2027 -
Juan Diego Perdomo Depor Ativo 90 / 99 40% 1 20.10.2027 -
Tyson Pearce St. Louis CITY SC Ativo 85 / 113 40% 2 19.10.2027 -
Ulises Giménez River Plate Ativo 123 / 132 40% 2 19.10.2027 -
Matthew Litherland Wigan Athletic Ativo 120 / 113 40% 1 18.10.2027 -
Máximo Munarriz San Telmo Ativo 97 / 110 40% 1 18.10.2027 -
Yannick Geiger IFK Norrkoping Ativo 98 / 103 40% 1 17.10.2027 -
Zahir Ibarra Defensa y Justicia Ativo 111 / 98 40% 1 16.10.2027 -
Gideon Manaseh Ikorodu City Ativo 84 / 96 40% 2 15.10.2027 -
Kaick New York Red Bulls Ativo 95 / 119 40% 2 14.10.2027 -
Edvard Pettersen Sandefjord Ativo 104 / 126 40% 1 14.10.2027 -
Ignacio Fernández Boston River Ativo 81 / 115 40% 4 13.10.2027 -
Axel Brönner Halmstad Ativo 99 / 114 40% 2 13.10.2027 -
Joaquín Soto Union La Calera Ativo 99 / 86 40% 1 13.10.2027 -
Issa Yusuf Shooting Stars Ativo 99 / 104 40% 4 11.10.2027 -
Julián Bazán Chicago Fire Ativo 124 / 120 40% 1 07.10.2027 -
Chibueze Oputa Rangers International Ativo 78 / 79 40% 5 05.10.2027 -
Juan Giménez Rayo Vallecano Ativo 122 / 130 40% 2 04.10.2027 -
Nikolay Sotnikov Arsenal Dzerzhinsk Ativo 91 / 92 40% 1 01.10.2027 -
Yury Oyarzo Racing Ativo 78 / 92 40% 1 30.09.2027 -
Tiago Gordillo San Miguel Ativo 74 / 93 40% 2 29.09.2027 -
Luis Otávio FC Dallas Ativo 97 / 110 40% 1 27.09.2027 -
Onyeuche Ujunwa Ikorodu City Ativo 97 / 103 40% 1 22.09.2027 -
Juan Camilo Córdoba Deportivo Pereira Ativo 92 / 100 40% 1 15.09.2027 -
Lautaro Dufur Rentistas Ativo 95 / 120 40% 1 14.09.2027 -
Alejandro Leiva Patronato Ativo 98 / 97 40% 2 13.09.2027 -
Esteban de Lima Tacuarembo Ativo 93 / 83 40% 1 13.09.2027 -
Matías Gómez Talleres Ativo 118 / 135 40% 1 10.09.2027 -
Agustín Medina Athletic Bilbao Ativo 126 / 134 40% 1 06.09.2027 -
Mbekezeli Mbokazi Chicago Fire Ativo 116 / 143 40% 1 05.09.2027 -
Onuorah Onyedika Kun Khalifat Ativo 80 / 79 40% 1 02.09.2027 -
Matías Canedo Rampla Juniors Ativo 75 / 99 40% 1 02.09.2027 -
Alejandro Almaraz Eibar Ativo 108 / 116 40% 2 28.07.2027 -
Christ Inao Oulaï Fiorentina Ativo 141 / 138 40% 1 28.07.2027 -
Adriano Jagušić Panathinaikos Ativo 137 / 132 40% 1 28.07.2027 -
Abubakar Garba Nasarawa United Ativo 98 / 82 40% 2 19.07.2027 -
Ronwen Vilakazi Ajax Cape Town Ativo 84 / 107 40% 1 19.07.2027 -
Lisandro Piñero Celta Ativo 118 / 133 40% 1 10.07.2027 -
Mfundo Vilakazi Bloemfontein Celtic Ativo 122 / 123 40% 1 10.07.2027 -
Victor Ehibe Ashanti Gold Ativo 102 / 96 40% 2 29.06.2027 -
Riley Owen Peterborough United Ativo 102 / 102 40% 2 29.06.2027 -
Maeson King Barnsley Ativo 109 / 123 40% 1 29.06.2027 -
Kermit Ngcobo Free State Stars Ativo 88 / 99 40% 1 17.06.2027 -
Leonardo Mendicino Bari Ativo 112 / 121 40% 1 17.06.2027 -
Harrison Armstrong Hull City Ativo 135 / 135 40% 1 16.06.2027 -
João Fonseca Benfica Ativo 115 / 114 40% 1 16.06.2027 -
Petter Nosa Dahl Rapid Wien Ativo 121 / 124 67% 1 01.06.2027 Aprovar
Samuel Lucero Defensa y Justicia Ativo 127 / 132 40% 1 01.06.2027 -
Louis Leroux FC Nantes Ativo 123 / 136 40% 1 31.05.2027 -
Sascha Britschgi Cosenza Ativo 123 / 120 40% 1 31.05.2027 -
Yaw Owusu Liberty Professionals Ativo 85 / 98 40% 1 31.05.2027 -
Oumar Camara Vitoria Guimaraes Ativo 127 / 135 40% 10 30.05.2027 -
Sam Greenwood Bristol City Ativo 127 / 129 40% 5 30.05.2027 -
Lorenzo De Leo Renate Ativo 99 / 111 40% 3 30.05.2027 -
Giorgi Chakvetadze Watford Ativo 129 / 120 40% 2 30.05.2027 -
Víctor Guzmán Sporting CP Ativo 99 / 93 40% 3 29.05.2027 -
Sindre Walle Egeli Ipswich Town Ativo 131 / 126 40% 8 29.05.2027 -
Lorenzo Amatucci Deportivo La Coruña Ativo 131 / 138 40% 1 27.05.2027 Mais informações
Harry Leonard Peterborough United Ativo 117 / 117 40% 1 27.05.2027 -
Sidiki Chérif Coventry City Ativo 134 / 124 40% 8 26.05.2027 -
Ezekiel Kwame Alladoh Philadelphia Union Ativo 110 / 126 40% 3 26.05.2027 -
Jack Diamond Stockport County Ativo 127 / 109 40% 3 26.05.2027 -
Jacques Ekomié Wrexham Ativo 137 / 132 40% 2 26.05.2027 Mais informações
Fletcher Holman Swindon Town Ativo 84 / 90 40% 1 26.05.2027 -
Daniel Gnahoua CS Constantine Ativo 110 / 114 40% 3 25.05.2027 -
Aidan Dausch Stevenage Ativo 76 / 84 40% 3 25.05.2027 -
Andre Brooks Sheffield United Ativo 131 / 137 40% 3 23.05.2027 -
Cristian Shpendi Cesena Ativo 132 / 123 40% 1 23.05.2027 -
Daniel Kyerewaa Reading Ativo 113 / 106 40% 4 22.05.2027 -
Jack Currie Oxford United Ativo 121 / 121 40% 2 22.05.2027 -
Cian Ashford Cardiff City Ativo 116 / 123 40% 5 21.05.2027 -
Stanley Mills Oxford United Ativo 129 / 125 40% 4 21.05.2027 -
Joseph Hungbo Wigan Athletic Ativo 107 / 116 40% 2 21.05.2027 -
Louie Barry Sheffield Wednesday Ativo 130 / 127 40% 4 20.05.2027 -
Rumarn Burrell Queens Park Rangers Ativo 122 / 120 40% 3 20.05.2027 -
Milan van Ewijk Coventry City Ativo 132 / 136 40% 5 19.05.2027 -
Bobby Clark Derby County Ativo 127 / 124 40% 2 19.05.2027 -
Sonny Carey Charlton Athletic Ativo 125 / 119 40% 1 19.05.2027 -
Junior Quitirna Wycombe Wanderers Ativo 110 / 114 40% 2 18.05.2027 -
Scott Twine Bristol City Ativo 124 / 114 40% 1 18.05.2027 -
Haissem Hassan Bloemfontein Celtic Ativo 132 / 134 40% 5 16.05.2027 -
Paddy Lane Reading Ativo 118 / 113 40% 4 16.05.2027 -
Luis Quintero Torreense Ativo 134 / 132 40% 3 16.05.2027 Observar
George Brown Sheffield Wednesday Ativo 102 / 114 40% 4 16.05.2027 -
Luka Andrade Montevideo City Torque Ativo 95 / 123 40% 1 16.05.2027 -
Christos Mouzakitis Hull City Ativo 127 / 136 40% 6 15.05.2027 Observar
Alex Robertson Cardiff City Ativo 123 / 112 40% 1 15.05.2027 -
Adama Goïta Remo Stars Ativo 95 / 106 40% 2 13.05.2027 -
Wendell Livyi Bereh Ativo 99 / 92 40% 2 13.05.2027 -
Finn Azaz Southampton Ativo 136 / 133 40% 3 13.05.2027 -
Jason Knight Bristol City Ativo 134 / 121 40% 6 13.05.2027 -
Tyler Goodrham Oxford United Ativo 118 / 119 40% 2 13.05.2027 -
Kristoffer Lund Birmingham Ativo 121 / 124 40% 4 11.05.2027 -
Othmane Maamma Watford Ativo 118 / 132 40% 1 09.05.2027 -
Adrià Altimira Deportivo La Coruña Ativo 132 / 122 40% 5 08.05.2027 Observar
Tshepang Moremi Orlando Pirates Ativo 108 / 131 40% 2 08.05.2027 -
Luke Baartman Ajax Cape Town Ativo 118 / 102 40% 2 07.05.2027 -
Guille Rosas Gijón Ativo 140 / 130 40% 1 07.05.2027 -
Malik Mothersille Stockport County Ativo 117 / 121 40% 2 04.05.2027 -
Jon Russell Crawley Town Ativo 105 / 100 40% 1 04.05.2027 -
Bobby Pointon Salford City Ativo 116 / 117 40% 4 03.05.2027 -
Derensili Sanches Fernandes Huddersfield Town Ativo 123 / 119 40% 1 03.05.2027 -
Justin Devenny Stoke City Ativo 126 / 126 40% 2 02.05.2027 -
Yari Verschaeren Sampdoria Ativo 116 / 126 40% 1 02.05.2027 -
Relebohile Mofokeng Orlando Pirates Ativo 114 / 141 40% 3 28.04.2027 -
David Turnbull Cardiff City Ativo 120 / 123 40% 3 28.04.2027 -
Fraser Murray Wigan Athletic Ativo 115 / 111 40% 6 26.04.2027 -
Aidomo Emakhu Oxford United Ativo 116 / 122 40% 5 24.04.2027 -
Jonathan Varane Queens Park Rangers Ativo 125 / 130 40% 1 24.04.2027 -
Camillo Tavernelli Arezzo Ativo 123 / 112 40% 1 24.04.2027 -
Azzedine Ounahi Panathinaikos Ativo 141 / 144 40% 2 21.04.2027 -
Ali Youssef Apollon Ativo 115 / 129 40% 3 20.04.2027 -
Tomás Sives Parma Ativo 110 / 111 40% 1 18.04.2027 -
Kristijan Jovović Pafos Ativo 73 / 75 40% 5 17.04.2027 -
Edoardo Bove Watford Ativo 132 / 122 40% 1 17.04.2027 -
Ruslan Myalkovskiy Lokomotiv Moscow Ativo 99 / 97 40% 1 17.04.2027 -
Angelos Neofytou Omonoia Ativo 83 / 96 40% 6 16.04.2027 -
Maren Kefas Plateau United Ativo 77 / 77 40% 3 16.04.2027 -
Ronald Swansea City Ativo 135 / 126 40% 1 13.04.2027 -
Jevan Beattie Harrogate Town Ativo 93 / 93 40% 4 12.04.2027 -
Emmanuel Nweke Smouha Ativo 99 / 92 40% 2 12.04.2027 -
Tyrese Campbell Sheffield United Ativo 136 / 134 40% 1 12.04.2027 -
Leo Castledine Leeds United Ativo 129 / 133 40% 1 11.04.2027 -
Cameron Gardner Grimsby Town Ativo 83 / 89 40% 1 11.04.2027 -
Iwan Morgan Grimsby Town Ativo 109 / 106 40% 5 10.04.2027 -
Mamadou Doumbia Watford Ativo 121 / 138 40% 3 10.04.2027 -
Daniil Tepliakov Metalist Ativo 92 / 102 40% 2 10.04.2027 -
Bradley Hlatshwayo SuperSport United Ativo 109 / 123 40% 3 08.04.2027 -
Victor Kristiansen Leicester City Ativo 127 / 121 40% 2 07.04.2027 -
Diogo Guzmán Deportivo La Coruña Ativo 113 / 125 40% 1 06.04.2027 -
Christian Saydee Wigan Athletic Ativo 116 / 110 40% 1 06.04.2027 -
Tristan Crama Millwall Ativo 119 / 120 40% 1 05.04.2027 -
Michael Noumon Heart of Lions Ativo 68 / 91 40% 4 04.04.2027 -
Will Lankshear Middlesbrough Ativo 118 / 131 40% 5 04.04.2027 -
Armando Dobra Chesterfield Ativo 117 / 103 40% 1 04.04.2027 -
Facundo Pellistri Panathinaikos Ativo 125 / 127 40% 5 02.04.2027 -
Dramane Kamagaté USM Alger Ativo 113 / 127 40% 4 30.03.2027 -
Marcelo Allende Mamelodi Sundowns Ativo 144 / 143 40% 2 30.03.2027 -
Adam Randell Bristol City Ativo 128 / 127 40% 1 29.03.2027 -
Matvii Burenko Vorskla Ativo 81 / 82 40% 2 28.03.2027 -
Edison Gruezo Queretaro Ativo 91 / 127 40% 3 26.03.2027 -
Tcherno Jamanca Porto Ativo 71 / 83 40% 1 23.03.2027 -
Luka Romero Cruz Azul Ativo 119 / 136 40% 1 21.03.2027 -
Aidan Morris Middlesbrough Ativo 123 / 130 40% 1 20.03.2027 -
Kaio Eduardo Basel Ativo 108 / 118 40% 1 18.03.2027 -
Charalabos Charalabous Aris Ativo 107 / 118 40% 3 16.03.2027 -
Imrân Louza Watford Ativo 125 / 132 40% 1 15.03.2027 -
Kings Kangwa Panathinaikos Ativo 141 / 130 40% 1 15.03.2027 -
Veljko Nikolić Aris Ativo 108 / 103 40% 2 12.03.2027 -
Joel Asoro Apollon Ativo 118 / 131 40% 1 11.03.2027 -
Dani Ángel Peterborough United Ativo 87 / 103 40% 2 10.03.2027 -
Patrik Wålemark Lech Ativo 130 / 131 40% 2 09.03.2027 -
George Earthy Reading Ativo 115 / 130 40% 1 09.03.2027 -
Mikey Johnston West Bromwich Albion Ativo 126 / 123 40% 2 07.03.2027 -
Kwadwo Opoku Panetolikos Ativo 111 / 122 40% 1 06.03.2027 -
Jalen Blesa Rio Ave Ativo 120 / 117 40% 1 06.03.2027 -
Nicolás Andereggen Ethnikos Achnas Ativo 116 / 112 40% 2 04.03.2027 -
Alexandr Komissarov Torpedo Vladimir Ativo 76 / 67 40% 3 02.03.2027 -
Petar Stanić Ludogorets Ativo 141 / 125 40% 1 28.02.2027 -
Jovon Makama Norwich City Ativo 128 / 114 40% 1 28.02.2027 -
Osman Adjei Wa All Stars Ativo 96 / 82 40% 2 27.02.2027 -
Kamogelo Sebelebele Orlando Pirates Ativo 106 / 103 40% 1 27.02.2027 -
Sebastián Arce Rodina Ativo 118 / 113 40% 2 21.02.2027 -
Harry Clarke Preston Ativo 133 / 131 40% 2 18.02.2027 -
Armstrong Oko-Flex Levski Ativo 124 / 128 40% 2 17.02.2027 -
Gustavo Assunção Apollon Ativo 117 / 116 40% 2 16.02.2027 -
Koki Saito Queens Park Rangers Ativo 128 / 129 40% 1 16.02.2027 -
Andreas Chrysostomou Anorthosis Ativo 107 / 118 40% 2 12.02.2027 -
Vasilis Zagaritis Heerenveen Ativo 116 / 120 40% 1 07.02.2027 -
Adrian Van Rumst Chertanovo Ativo 70 / 84 40% 1 03.02.2027 -
Jimmy Kazan Paralimni Ativo 89 / 93 40% 3 02.02.2027 -
Kirill Cheburakov Rostov Ativo 78 / 91 40% 1 02.02.2027 -
Fabijan Krivak Sigma Olomouc Ativo 109 / 120 40% 1 25.01.2027 -
Jean Deschamps Chamois Niortais Ativo 91 / 104 40% 1 19.01.2027 -
Panagiotis Markou Doxa Ativo 81 / 100 40% 1 19.01.2027 -
Andreas Makris AEL Larisa Ativo 129 / 108 65% 1 11.01.2027 Aprovar
Bernardo Lima Porto Ativo 99 / 100 40% 1 11.01.2027 -
Bence Szakos Aris Ativo 97 / 97 40% 1 11.01.2027 -
Filip Stojanovic NK Domzale Ativo 124 / 124 66% 1 01.01.2027 Aprovar
Taher Mohamed Al Ahly Ativo 119 / 119 67% 1 01.01.2027 Aprovar
Lennon Miller AC Milan Ativo 130 / 138 40% 1 31.12.2026 -
Konstantinos Giannakou APOEL Perdido 102 / 97 40% 1 31.12.2026 -
Sergey Gribov Dinamo Bryansk Ativo 87 / 90 40% 2 24.12.2026 -
Mateus Mané Liverpool Ativo 122 / 130 40% 4 24.12.2026 -
Dilan Godoy Vélez Ativo 101 / 124 40% 1 14.12.2026 -
Tiziano Dornell Almagro Ativo 107 / 122 40% 2 11.12.2026 -
Thalys Almería Ativo 128 / 113 40% 1 10.12.2026 -
Christos Loukaidis AE Kition Ativo 101 / 87 40% 2 09.12.2026 -
Artem Husol Kolos Ativo 93 / 106 40% 1 04.12.2026 -
Dimitris Rallis Lech Ativo 100 / 120 40% 9 03.12.2026 -
Bogdan Petrović TSC Ativo 102 / 107 40% 5 29.11.2026 -
Nikolay Zlatev Cherno More Ativo 91 / 108 40% 2 27.11.2026 -
Mateja Bubanj Admira Wacker Ativo 93 / 105 40% 2 25.11.2026 -
Benjamin Dulčić Hrvatski Dragovoljac Ativo 73 / 90 40% 1 22.11.2026 -
Vadym Sydun Epicentr Ativo 92 / 87 40% 1 19.11.2026 -
Mateo Maravić Cukaricki Ativo 92 / 104 40% 1 18.11.2026 -
Jeff Ekhator Juventus Ativo 131 / 128 40% 1 16.11.2026 -
Axel Pedrozo Almagro Ativo 94 / 93 40% 1 15.11.2026 -
Csanád Vilmos Dénes Debrecen Ativo 96 / 106 40% 1 09.11.2026 -
Philip Onyedika MFK Skalica Ativo 88 / 98 40% 1 02.11.2026 -
Kevin Bijol NK Domzale Ativo 91 / 107 40% 1 02.11.2026 -
Charalabos Erotokritou Doxa Ativo 96 / 92 40% 1 02.11.2026 -
Najeeb Ibrahim Niger Tornadoes Ativo 82 / 92 40% 1 30.10.2026 -
Sebastian Holm Mathisen Sandefjord Ativo 117 / 105 40% 3 28.10.2026 -
Leandro Milito Racing Club Ativo 73 / 88 40% 1 27.10.2026 -
Alex Harris Colorado Rapids Ativo 90 / 97 40% 1 26.10.2026 -
Alan Coria Defensa y Justicia Ativo 91 / 91 40% 3 23.10.2026 -
Kristian Fletcher FC Cincinnati Ativo 104 / 91 40% 1 21.10.2026 -
Guram Janelidze Tskhinvali Ativo 89 / 84 40% 1 19.10.2026 -
Archie Goodwin Charlotte Football Club Ativo 94 / 102 40% 3 18.10.2026 -
Matías Cantero All Boys Ativo 97 / 102 40% 1 18.10.2026 -
Thiago Perugini San Lorenzo Ativo 108 / 115 40% 1 17.10.2026 -
Víctor Machado Independiente Rivadavia Ativo 91 / 95 40% 2 15.10.2026 -
Román Albornoz Temperley Ativo 81 / 111 40% 3 14.10.2026 -
Lautaro Díaz San Martín Ativo 89 / 91 40% 2 13.10.2026 -
Aaron Centurión Vélez Ativo 101 / 83 40% 1 13.10.2026 -
Tiago Pucciarelli All Boys Ativo 93 / 124 40% 3 11.10.2026 -
Leon Grgić Sturm Graz Ativo 124 / 115 40% 2 11.10.2026 -
Matías Acevedo Racing Club Ativo 85 / 89 40% 1 11.10.2026 -
Taha Ayari AIK Ativo 114 / 107 40% 1 10.10.2026 -
Bruno Fernández Independiente Ativo 83 / 89 40% 1 08.10.2026 -
Lorenzo Orzán Colón Ativo 84 / 96 40% 2 04.10.2026 -
Granit Rodriguez Luzern Ativo 74 / 84 40% 1 02.10.2026 -
Grigoris Politakis Panserraikos Ativo 75 / 74 40% 1 29.09.2026 -
Matheus Alves Zenit Ativo 121 / 120 40% 1 29.09.2026 -
Ruben Ramos LA Galaxy Ativo 88 / 114 40% 1 28.09.2026 -
Ian Escobar Vélez Ativo 89 / 98 40% 1 24.09.2026 -
Franco Domínguez Ávila Estudiantes Ativo 79 / 107 40% 1 23.09.2026 -
Will Dickson Chesterfield Ativo 81 / 95 40% 1 20.09.2026 -
Bautista Pereira Danubio Ativo 100 / 87 40% 1 18.09.2026 -
Rodrigo Granillo Atlético Tucumán Ativo 88 / 99 40% 1 17.09.2026 -
Marcus Caldeira Minnesota United FC Ativo 78 / 101 40% 1 14.09.2026 -
Francisco Robinson San Martín Ativo 89 / 109 40% 1 11.09.2026 -
Jonás Oberman Defensa y Justicia Ativo 94 / 106 40% 1 10.09.2026 -
Jocelin Ta Bi Sunderland Ativo 111 / 126 40% 1 09.09.2026 -
Matías Fuentes Boca Juniors Ativo 77 / 103 40% 1 07.09.2026 -
Ilija Vukotić OFI Ativo 113 / 97 65% 1 31.08.2026 Aprovar
Facundo Kalinger Huracán Ativo 112 / 126 40% 1 12.08.2026 -
Panagiotis Andreou Omonoia Ativo 93 / 88 40% 1 12.08.2026 -